Time;durP1;ratioP1;P1;durP2;ratioP2;P2;SDS_P1;SDS_P2;PMS_P1;PMS_P2;Temp;Humidity;BMP_temperature;BMP_pressure;BME280_temperature;BME280_humidity;BME280_pressure;Samples;Min_cycle;Max_cycle;Signal;HPM_P1;HPM_P2
2023/11/28 00:01:32;;;;;;;5.18;1.88;;;;;;;5.28;82.12;99219.78;5004521;28;20042;-46
2023/11/28 00:04:00;;;;;;;4.30;3.50;;;;;;;5.25;82.37;99234.34;5006424;28;20490;-49
2023/11/28 00:06:26;;;;;;;2.63;1.65;;;;;;;5.23;82.43;99236.91;5008403;28;20052;-48
2023/11/28 00:08:53;;;;;;;6.57;2.50;;;;;;;5.25;82.59;99245.47;5012556;28;20045;-48
2023/11/28 00:11:21;;;;;;;10.38;3.15;;;;;;;5.31;81.79;99244.66;5008620;28;20053;-46
2023/11/28 00:13:49;;;;;;;8.32;3.42;;;;;;;5.29;82.42;99251.47;5006673;28;20069;-46
2023/11/28 00:16:16;;;;;;;5.60;2.60;;;;;;;5.31;81.75;99248.94;5007332;28;20053;-47
2023/11/28 00:18:43;;;;;;;6.53;2.72;;;;;;;5.33;81.55;99260.06;5007047;28;20064;-45
2023/11/28 00:21:10;;;;;;;8.90;4.32;;;;;;;5.33;81.65;99254.94;5008522;28;20037;-49
2023/11/28 00:23:36;;;;;;;9.65;3.20;;;;;;;5.32;82.21;99254.06;5008456;28;20053;-47
2023/11/28 00:26:03;;;;;;;7.30;3.45;;;;;;;5.33;82.76;99263.47;5008423;28;20475;-45
2023/11/28 00:28:30;;;;;;;4.50;2.83;;;;;;;5.34;81.39;99267.75;5007436;28;20058;-49
2023/11/28 00:30:57;;;;;;;6.72;3.38;;;;;;;5.33;82.93;99271.19;5005310;28;20522;-47
2023/11/28 00:33:25;;;;;;;7.25;3.22;;;;;;;5.37;81.67;99272.09;5004313;28;20050;-43
2023/11/28 00:35:52;;;;;;;5.60;2.45;;;;;;;5.32;82.18;99274.63;5006303;28;20050;-49
2023/11/28 00:38:19;;;;;;;7.88;2.72;;;;;;;5.34;81.47;99285.75;5003346;28;20124;-48
2023/11/28 00:40:48;;;;;;;8.00;2.22;;;;;;;5.35;82.64;99290.06;4998862;28;20050;-48
2023/11/28 00:43:17;;;;;;;5.03;2.65;;;;;;;5.34;82.43;99298.56;4997638;28;20562;-50
2023/11/28 00:45:44;;;;;;;3.75;1.80;;;;;;;5.34;83.01;99296.00;5004242;28;20045;-45
2023/11/28 00:48:11;;;;;;;7.38;3.88;;;;;;;5.38;81.33;99299.47;4999247;28;20790;-49
2023/11/28 00:50:39;;;;;;;7.57;2.40;;;;;;;5.35;82.00;99295.19;5004064;28;20046;-50
2023/11/28 00:53:05;;;;;;;8.52;3.75;;;;;;;5.36;81.40;99307.16;5000658;28;20445;-49
2023/11/28 00:55:32;;;;;;;8.60;3.42;;;;;;;5.37;81.83;99303.75;5000785;28;20100;-47
2023/11/28 00:57:59;;;;;;;9.55;3.50;;;;;;;5.36;81.73;99306.28;5004466;28;20049;-51
2023/11/28 01:00:25;;;;;;;7.18;3.60;;;;;;;5.35;81.72;99315.72;5001942;28;20051;-51
2023/11/28 01:02:52;;;;;;;5.97;2.60;;;;;;;5.34;82.31;99324.25;5003010;28;20050;-45
2023/11/28 01:05:20;;;;;;;7.53;3.05;;;;;;;5.31;81.17;99324.25;5002381;28;20125;-51
2023/11/28 01:07:47;;;;;;;7.65;3.00;;;;;;;5.33;81.60;99324.28;5000550;28;20133;-46
2023/11/28 01:10:14;;;;;;;6.50;3.47;;;;;;;5.31;81.44;99326.84;5001733;28;20076;-48
2023/11/28 01:12:41;;;;;;;7.25;3.60;;;;;;;5.32;81.32;99325.97;4998912;28;20042;-43
2023/11/28 01:15:08;;;;;;;7.43;2.58;;;;;;;5.29;81.36;99331.09;5011550;28;20552;-50
2023/11/28 01:17:35;;;;;;;6.82;2.10;;;;;;;5.28;82.27;99334.50;4995543;28;20088;-47
2023/11/28 01:20:03;;;;;;;7.30;3.88;;;;;;;5.28;82.13;99334.50;5004289;28;20124;-49
2023/11/28 01:22:29;;;;;;;5.88;1.92;;;;;;;5.29;81.57;99328.50;5006522;28;20046;-53
2023/11/28 01:24:57;;;;;;;4.78;1.83;;;;;;;5.27;81.93;99328.50;4999160;28;20054;-44
2023/11/28 01:27:23;;;;;;;8.57;3.42;;;;;;;5.26;81.27;99326.78;4999807;28;20057;-48
2023/11/28 01:29:51;;;;;;;5.25;2.72;;;;;;;5.22;81.46;99326.75;5001123;28;20046;-48
2023/11/28 01:32:17;;;;;;;5.45;3.08;;;;;;;5.18;81.73;99327.56;5007100;28;20046;-47
2023/11/28 01:34:44;;;;;;;5.85;3.35;;;;;;;5.14;81.99;99335.25;4993151;28;20148;-48
2023/11/28 01:37:13;;;;;;;6.53;2.92;;;;;;;5.14;81.30;99342.09;5005176;28;20046;-47
2023/11/28 01:39:40;;;;;;;6.72;2.65;;;;;;;5.13;82.01;99342.94;5003179;28;20056;-49
2023/11/28 01:42:08;;;;;;;7.45;3.10;;;;;;;5.09;82.12;99352.31;4998596;28;20042;-53
2023/11/28 01:44:35;;;;;;;11.52;3.88;;;;;;;5.07;82.21;99348.88;5003328;28;20054;-50
2023/11/28 01:47:04;;;;;;;7.50;3.05;;;;;;;5.07;80.94;99354.00;5001039;28;20412;-48
2023/11/28 01:49:34;;;;;;;6.10;2.60;;;;;;;5.08;81.95;99363.44;5002457;28;20129;-46
2023/11/28 01:52:04;;;;;;;9.57;3.40;;;;;;;5.07;81.98;99356.56;4994684;28;20054;-52
2023/11/28 01:54:32;;;;;;;4.28;2.75;;;;;;;5.09;82.05;99359.16;5000207;28;20042;-44
2023/11/28 01:57:00;;;;;;;6.80;3.08;;;;;;;5.07;81.54;99356.56;5000835;28;20503;-47
2023/11/28 01:59:30;;;;;;;7.25;2.78;;;;;;;5.07;81.11;99351.44;5003470;28;20068;-46
2023/11/28 02:01:57;;;;;;;;;;;;;;;4.98;81.72;99351.38;5001726;28;20053;-45
2023/11/28 02:04:25;;;;;;;6.28;2.85;;;;;;;4.98;81.85;99359.06;5005812;28;20638;-48
2023/11/28 02:06:53;;;;;;;7.32;2.80;;;;;;;4.96;81.87;99369.31;5004161;28;20053;-43
2023/11/28 02:09:21;;;;;;;5.32;2.60;;;;;;;4.93;81.20;99364.16;5007326;28;20038;-43
2023/11/28 02:11:49;;;;;;;7.78;2.55;;;;;;;4.89;81.03;99376.09;4999967;28;20057;-49
2023/11/28 02:14:17;;;;;;;5.93;2.45;;;;;;;4.85;80.76;99371.78;5007297;28;20048;-50
2023/11/28 02:16:45;;;;;;;5.75;2.45;;;;;;;4.82;80.97;99386.28;5001772;28;20056;-49
2023/11/28 02:19:12;;;;;;;5.22;2.28;;;;;;;4.79;80.88;99381.16;5001513;28;20098;-44
2023/11/28 02:21:39;;;;;;;4.63;2.55;;;;;;;4.77;81.07;99388.81;5002812;28;20050;-47
2023/11/28 02:24:11;;;;;;;5.57;2.92;;;;;;;4.77;80.78;99396.53;5001571;28;20061;-45
2023/11/28 02:26:37;;;;;;;4.53;2.42;;;;;;;4.76;81.63;99402.47;4997781;28;20046;-50
2023/11/28 02:29:04;;;;;;;5.57;2.08;;;;;;;4.73;81.03;99413.56;4997150;28;20050;-49
2023/11/28 02:31:31;;;;;;;6.15;2.72;;;;;;;4.74;80.92;99419.56;5001765;28;20130;-48
2023/11/28 02:33:58;;;;;;;4.57;2.67;;;;;;;4.74;81.74;99423.00;4997835;28;20045;-46
2023/11/28 02:36:25;;;;;;;4.75;2.00;;;;;;;4.76;81.25;99429.00;4998343;28;20524;-49
2023/11/28 02:38:52;;;;;;;5.43;2.05;;;;;;;4.79;82.04;99437.59;5003992;28;20060;-47
2023/11/28 02:41:19;;;;;;;5.40;2.55;;;;;;;4.74;81.90;99440.09;5003555;28;20054;-49
2023/11/28 02:43:46;;;;;;;7.53;2.47;;;;;;;4.70;81.44;99443.47;5004942;28;20053;-46
2023/11/28 02:46:12;;;;;;;4.35;2.72;;;;;;;4.66;81.57;99442.56;5002314;28;20128;-47
2023/11/28 02:48:40;;;;;;;9.63;3.97;;;;;;;4.66;81.91;99445.13;4999169;28;20126;-50
2023/11/28 02:51:10;;;;;;;4.57;2.33;;;;;;;4.62;81.46;99446.81;5001945;28;20046;-45
2023/11/28 02:53:38;;;;;;;;;;;;;;;4.61;82.38;99451.91;5000075;28;20081;-42
2023/11/28 02:56:06;;;;;;;7.00;2.38;;;;;;;4.65;82.17;99455.38;5004472;28;20009;-43
2023/11/28 02:58:32;;;;;;;3.45;1.20;;;;;;;4.66;82.71;99457.13;5001996;28;20049;-50
2023/11/28 03:00:59;;;;;;;3.22;1.23;;;;;;;4.67;82.79;99456.25;5000801;28;20057;-43
2023/11/28 03:03:26;;;;;;;4.93;2.15;;;;;;;4.68;82.02;99460.53;4990957;28;20042;-51
2023/11/28 03:05:53;;;;;;;7.70;2.42;;;;;;;4.68;82.31;99465.66;4999988;28;20479;-44
2023/11/28 03:08:22;;;;;;;4.20;2.05;;;;;;;4.66;81.72;99472.50;5001560;28;20121;-46
2023/11/28 03:10:49;;;;;;;8.63;2.85;;;;;;;4.67;81.98;99474.22;5000136;28;20073;-51
2023/11/28 03:13:16;;;;;;;5.40;1.70;;;;;;;4.67;81.61;99472.53;5003425;28;20557;-48
2023/11/28 03:15:42;;;;;;;5.13;2.38;;;;;;;4.70;82.31;99475.09;4997879;28;20042;-44
2023/11/28 03:18:09;;;;;;;4.57;1.52;;;;;;;4.69;81.79;99478.53;4999610;28;20045;-45
2023/11/28 03:20:36;;;;;;;12.13;2.42;;;;;;;4.76;83.08;99479.44;5001613;28;20053;-46
2023/11/28 03:23:02;;;;;;;5.20;1.85;;;;;;;4.74;82.32;99482.03;4999584;28;20050;-43
2023/11/28 03:25:29;;;;;;;10.35;2.13;;;;;;;4.77;82.03;99491.44;4996037;28;20042;-46
2023/11/28 03:27:56;;;;;;;6.03;2.53;;;;;;;4.83;82.69;99496.63;5003890;28;20051;-47
2023/11/28 03:30:24;;;;;;;7.03;1.40;;;;;;;4.85;82.84;99500.09;5002120;28;20499;-44
2023/11/28 03:32:52;;;;;;;8.70;1.92;;;;;;;4.92;82.62;99493.31;5009097;28;20053;-47
2023/11/28 03:35:19;;;;;;;3.85;1.35;;;;;;;4.91;81.86;99493.31;5003990;28;20046;-45
2023/11/28 03:37:46;;;;;;;5.25;1.83;;;;;;;4.93;81.74;99496.78;5005714;28;20495;-45
2023/11/28 03:40:14;;;;;;;6.75;2.13;;;;;;;4.96;81.63;99494.25;5016597;28;20049;-47
2023/11/28 03:42:42;;;;;;;7.18;2.13;;;;;;;4.96;81.42;99497.66;5008528;28;20463;-49
2023/11/28 03:45:10;;;;;;;3.47;2.13;;;;;;;4.98;81.45;99502.81;5000022;28;20499;-47
2023/11/28 03:47:36;;;;;;;5.05;2.20;;;;;;;4.98;82.24;99507.94;5009168;28;20164;-44
2023/11/28 03:50:04;;;;;;;6.05;2.13;;;;;;;4.98;81.28;99505.38;5008871;28;20046;-51
2023/11/28 03:52:31;;;;;;;7.05;1.95;;;;;;;5.00;82.25;99513.97;5007021;28;20042;-51
2023/11/28 03:54:58;;;;;;;5.80;1.35;;;;;;;4.98;81.40;99500.22;4996675;28;20049;-46
2023/11/28 03:57:25;;;;;;;3.80;1.40;;;;;;;4.98;82.09;99510.50;5001567;28;20053;-50
2023/11/28 03:59:51;;;;;;;3.15;1.30;;;;;;;4.98;81.25;99511.38;5006751;28;20188;-47
2023/11/28 04:02:18;;;;;;;3.20;1.85;;;;;;;4.98;81.74;99510.50;5004041;28;20060;-47
2023/11/28 04:04:45;;;;;;;7.38;2.58;;;;;;;4.99;81.92;99517.34;5004973;28;20064;-46
2023/11/28 04:07:12;;;;;;;6.03;2.38;;;;;;;4.99;81.17;99517.34;5005784;28;20046;-45
2023/11/28 04:09:41;;;;;;;4.68;1.50;;;;;;;4.97;81.80;99508.78;4996225;28;20076;-46
2023/11/28 04:12:07;;;;;;;6.72;1.42;;;;;;;4.96;81.74;99512.22;5005792;28;20050;-47
2023/11/28 04:14:35;;;;;;;4.57;1.70;;;;;;;4.97;80.91;99513.91;5005108;28;20144;-45
2023/11/28 04:17:01;;;;;;;4.13;1.77;;;;;;;4.97;81.89;99513.91;5004835;28;20057;-46
2023/11/28 04:19:28;;;;;;;3.22;1.38;;;;;;;4.98;81.26;99515.63;5005352;28;20076;-48
2023/11/28 04:21:55;;;;;;;4.70;1.63;;;;;;;4.97;80.86;99513.91;5005357;28;20050;-47
2023/11/28 04:24:21;;;;;;;5.47;2.03;;;;;;;4.97;81.83;99522.47;5004446;28;20050;-44
2023/11/28 04:26:48;;;;;;;3.60;1.20;;;;;;;4.97;81.03;99519.91;5004024;28;20762;-48
2023/11/28 04:29:15;;;;;;;3.65;1.35;;;;;;;4.98;80.90;99520.78;5006341;28;20060;-46
2023/11/28 04:31:42;;;;;;;4.03;1.02;;;;;;;4.99;81.65;99532.75;5002228;28;20049;-50
2023/11/28 04:34:09;;;;;;;10.05;3.70;;;;;;;4.99;81.74;99522.47;5002496;28;20057;-43
2023/11/28 04:36:36;;;;;;;3.08;1.40;;;;;;;4.98;80.84;99528.47;5008607;28;20156;-44
2023/11/28 04:39:05;;;;;;;4.85;1.95;;;;;;;4.97;81.59;99534.44;5008487;28;20050;-48
2023/11/28 04:41:32;;;;;;;6.22;1.98;;;;;;;4.96;80.77;99543.00;5002315;28;20092;-47
2023/11/28 04:43:59;;;;;;;4.97;1.80;;;;;;;4.94;81.67;99540.41;5004701;28;20525;-47
2023/11/28 04:46:25;;;;;;;2.38;1.55;;;;;;;4.94;81.16;99539.53;5008231;28;20477;-50
2023/11/28 04:48:52;;;;;;;3.08;1.92;;;;;;;4.93;81.45;99537.81;5005862;28;20060;-47
2023/11/28 04:51:19;;;;;;;3.85;1.08;;;;;;;4.93;81.03;99538.66;5004439;28;20491;-50
2023/11/28 04:53:45;;;;;;;4.35;1.08;;;;;;;4.88;81.53;99546.34;5008734;28;20061;-48
2023/11/28 04:56:12;;;;;;;2.55;0.77;;;;;;;4.89;81.10;99542.91;5008994;28;20045;-46
2023/11/28 04:58:41;;;;;;;2.08;0.80;;;;;;;4.86;81.51;99545.44;5007436;28;20419;-43
2023/11/28 05:01:08;;;;;;;2.28;0.88;;;;;;;4.84;81.74;99553.97;5009459;28;20041;-46
2023/11/28 05:03:35;;;;;;;2.70;1.38;;;;;;;4.86;81.34;99562.53;5007352;28;20054;-47
2023/11/28 05:06:01;;;;;;;6.05;1.13;;;;;;;4.86;81.57;99562.53;5006174;28;20049;-44
2023/11/28 05:08:28;;;;;;;4.40;1.83;;;;;;;4.86;81.38;99563.41;5008369;28;20168;-47
2023/11/28 05:10:55;;;;;;;1.40;0.85;;;;;;;4.87;81.07;99567.69;5007387;28;20061;-45
2023/11/28 05:13:21;;;;;;;2.67;0.60;;;;;;;4.86;80.66;99563.41;5007137;28;20073;-46
2023/11/28 05:15:48;;;;;;;2.22;0.95;;;;;;;4.87;81.10;99565.13;4999591;28;20053;-45
2023/11/28 05:18:15;;;;;;;2.47;0.80;;;;;;;4.85;80.61;99574.53;5005465;28;20051;-51
2023/11/28 05:20:41;;;;;;;2.15;1.33;;;;;;;4.85;81.14;99566.81;5001959;28;20080;-45
2023/11/28 05:23:08;;;;;;;6.78;0.73;;;;;;;4.85;80.55;99565.94;5012773;28;20061;-43
2023/11/28 05:25:35;;;;;;;2.92;1.45;;;;;;;4.85;80.60;99561.69;5005849;28;20070;-42
2023/11/28 05:28:02;;;;;;;2.45;0.70;;;;;;;4.84;81.14;99549.72;5005721;28;20108;-44
2023/11/28 05:30:29;;;;;;;4.20;0.88;;;;;;;4.83;80.57;99542.81;5006365;28;20281;-44
2023/11/28 05:32:55;;;;;;;1.67;0.52;;;;;;;4.82;80.32;99558.19;4995019;28;20069;-47
2023/11/28 05:35:22;;;;;;;2.15;0.70;;;;;;;4.78;80.37;99554.75;4998282;28;20443;-47
2023/11/28 05:37:49;;;;;;;1.33;1.08;;;;;;;4.74;80.21;99558.13;4999486;28;20360;-48
2023/11/28 05:40:15;;;;;;;5.10;1.13;;;;;;;4.68;80.78;99558.03;5004145;28;20075;-49
2023/11/28 05:42:42;;;;;;;2.15;0.35;;;;;;;4.61;80.18;99568.22;5002459;28;20054;-49
2023/11/28 05:45:10;;;;;;;1.77;0.88;;;;;;;4.55;80.49;99560.44;5007589;28;20053;-46
2023/11/28 05:47:37;;;;;;;1.80;1.02;;;;;;;4.53;80.59;99554.44;5004715;28;20058;-46
2023/11/28 05:50:05;;;;;;;3.72;1.13;;;;;;;4.50;80.70;99554.38;5005154;28;20487;-45
2023/11/28 05:52:32;;;;;;;3.03;0.93;;;;;;;4.46;80.71;99562.88;4996284;28;20149;-44
2023/11/28 05:54:58;;;;;;;4.72;1.02;;;;;;;4.41;81.08;99554.22;5007230;28;20073;-41
2023/11/28 05:57:28;;;;;;;6.55;2.55;;;;;;;4.36;80.85;99562.72;4998308;28;20049;-47
2023/11/28 05:59:55;;;;;;;8.35;1.60;;;;;;;4.32;81.17;99555.81;5006021;28;20053;-46
2023/11/28 06:02:22;;;;;;;2.78;0.70;;;;;;;4.28;80.67;99569.44;4993287;28;20061;-45
2023/11/28 06:04:50;;;;;;;4.82;1.55;;;;;;;4.24;80.98;99577.94;5001302;28;20092;-52
2023/11/28 06:07:16;;;;;;;8.48;1.48;;;;;;;4.20;80.39;99578.72;5003573;28;20097;-42
2023/11/28 06:09:43;;;;;;;3.42;0.85;;;;;;;4.16;81.18;99579.50;5004424;28;20462;-41
2023/11/28 06:12:10;;;;;;;4.55;0.90;;;;;;;4.11;81.16;99582.88;4999336;28;20062;-42
2023/11/28 06:14:37;;;;;;;3.60;0.90;;;;;;;4.06;81.23;99587.03;5004632;28;20060;-47
2023/11/28 06:17:04;;;;;;;4.43;1.02;;;;;;;4.05;80.82;99587.88;5003828;28;20041;-50
2023/11/28 06:19:32;;;;;;;2.00;1.00;;;;;;;4.02;80.79;99586.97;5001687;28;20054;-44
2023/11/28 06:21:59;;;;;;;4.00;1.15;;;;;;;3.99;81.10;99590.34;4997150;28;20049;-47
2023/11/28 06:24:26;;;;;;;3.53;1.88;;;;;;;3.97;81.01;99592.03;5001028;28;20054;-45
2023/11/28 06:26:53;;;;;;;7.10;1.65;;;;;;;3.97;80.98;99599.72;5003598;28;20045;-49
2023/11/28 06:29:19;;;;;;;2.85;0.95;;;;;;;3.97;81.18;99597.16;5004305;28;20060;-46
2023/11/28 06:31:46;;;;;;;4.05;1.42;;;;;;;4.00;81.30;99599.75;4996162;28;20054;-50
2023/11/28 06:34:13;;;;;;;4.00;1.55;;;;;;;4.02;81.08;99598.06;5002104;28;20057;-44
2023/11/28 06:36:39;;;;;;;2.92;1.95;;;;;;;4.02;81.59;99598.06;5003777;28;20038;-43
2023/11/28 06:39:06;;;;;;;1.65;1.20;;;;;;;4.03;81.41;99597.25;4999976;28;20046;-44
2023/11/28 06:41:33;;;;;;;3.25;1.40;;;;;;;4.04;81.58;99601.53;5005851;28;20050;-49
2023/11/28 06:44:00;;;;;;;5.07;1.55;;;;;;;4.04;81.46;99601.53;5001412;28;20138;-47
2023/11/28 06:46:30;;;;;;;2.65;1.75;;;;;;;4.03;81.18;99604.94;5005879;28;20041;-46
2023/11/28 06:48:57;;;;;;;1.92;0.82;;;;;;;4.03;82.16;99614.31;4997134;28;20054;-48
2023/11/28 06:51:26;;;;;;;4.03;1.85;;;;;;;4.04;81.72;99610.91;5005048;28;20054;-46
2023/11/28 06:53:54;;;;;;;3.60;1.45;;;;;;;4.06;81.75;99616.94;4999859;28;20408;-47
2023/11/28 06:56:20;;;;;;;4.00;2.65;;;;;;;4.11;81.85;99623.88;5001493;28;20046;-45
2023/11/28 06:58:47;;;;;;;5.85;2.08;;;;;;;4.14;82.27;99622.19;4996171;28;20052;-47
2023/11/28 07:01:14;;;;;;;8.23;1.73;;;;;;;4.19;82.03;99626.56;4995033;28;20085;-47
2023/11/28 07:03:41;;;;;;;2.70;1.05;;;;;;;4.21;81.83;99617.19;4998942;28;20048;-48
2023/11/28 07:06:08;;;;;;;3.72;1.45;;;;;;;4.25;82.11;99623.22;5003946;28;20168;-55
2023/11/28 07:08:34;;;;;;;1.90;1.05;;;;;;;4.27;81.85;99623.25;5010883;28;20446;-46
2023/11/28 07:11:02;;;;;;;4.72;1.55;;;;;;;4.30;82.10;99624.19;5005349;28;20064;-44
2023/11/28 07:13:28;;;;;;;2.97;0.95;;;;;;;4.31;81.82;99625.03;5008297;28;20080;-49
2023/11/28 07:15:55;;;;;;;6.45;1.67;;;;;;;4.33;81.57;99621.66;4999582;28;20128;-43
2023/11/28 07:18:22;;;;;;;7.07;1.88;;;;;;;4.34;81.89;99620.84;5001479;28;20173;-49
2023/11/28 07:20:50;;;;;;;5.45;2.08;;;;;;;4.32;81.09;99627.63;5003072;28;20129;-46
2023/11/28 07:23:17;;;;;;;5.13;1.60;;;;;;;4.30;81.17;99621.63;5002267;28;20129;-47
2023/11/28 07:25:46;;;;;;;5.57;1.88;;;;;;;4.26;81.49;99627.53;5001702;28;20062;-46
2023/11/28 07:28:13;;;;;;;6.05;2.38;;;;;;;4.20;81.17;99624.88;5004451;28;20427;-52
2023/11/28 07:30:39;;;;;;;8.02;2.00;;;;;;;4.14;81.11;99629.88;5006559;28;20046;-44
2023/11/28 07:33:06;;;;;;;6.63;2.50;;;;;;;4.11;81.02;99628.13;5006193;28;20060;-47
2023/11/28 07:35:33;;;;;;;7.78;2.03;;;;;;;4.04;81.30;99632.28;5004701;28;20513;-46
2023/11/28 07:38:02;;;;;;;4.40;2.13;;;;;;;4.00;81.23;99635.66;5006177;28;20111;-44
2023/11/28 07:40:30;;;;;;;4.47;2.28;;;;;;;3.97;80.62;99645.84;5005131;28;20049;-45
2023/11/28 07:42:57;;;;;;;5.65;1.77;;;;;;;3.94;81.10;99645.78;5005359;28;20050;-47
2023/11/28 07:45:24;;;;;;;5.40;2.10;;;;;;;3.94;81.39;99653.47;5008223;28;20041;-46
2023/11/28 07:47:50;;;;;;;5.63;1.90;;;;;;;3.94;81.50;99656.03;5001615;28;20049;-42
2023/11/28 07:50:17;;;;;;;5.32;2.08;;;;;;;3.94;81.23;99661.16;4997922;28;20054;-48
2023/11/28 07:52:44;;;;;;;9.48;1.95;;;;;;;3.95;81.04;99662.91;4992231;28;20479;-44
2023/11/28 07:55:11;;;;;;;4.18;2.30;;;;;;;3.96;81.11;99659.50;5001257;28;20046;-47
2023/11/28 07:57:38;;;;;;;4.47;1.48;;;;;;;3.97;81.41;99650.97;5004541;28;20464;-45
2023/11/28 08:00:07;;;;;;;7.28;2.17;;;;;;;4.00;81.14;99656.16;4995499;28;20053;-50
2023/11/28 08:02:35;;;;;;;5.97;1.38;;;;;;;4.02;81.06;99651.06;4998520;28;20050;-45
2023/11/28 08:05:03;;;;;;;7.93;1.88;;;;;;;4.06;80.92;99655.41;4996658;28;20049;-46
2023/11/28 08:07:33;;;;;;;3.42;1.40;;;;;;;4.10;81.04;99658.03;4996796;28;20043;-47
2023/11/28 08:10:00;;;;;;;4.68;1.58;;;;;;;4.16;81.01;99651.28;4994834;28;20053;-50
2023/11/28 08:12:28;;;;;;;4.65;1.52;;;;;;;4.23;80.87;99658.25;4989007;28;20165;-47
2023/11/28 08:14:54;;;;;;;4.10;1.67;;;;;;;4.32;81.04;99660.94;5001519;28;20132;-42
2023/11/28 08:17:21;;;;;;;8.88;1.55;;;;;;;4.45;81.77;99666.28;4994840;28;20053;-47
2023/11/28 08:19:50;;;;;;;8.70;1.92;;;;;;;4.56;81.21;99662.19;4992016;28;20078;-44
2023/11/28 08:22:17;;;;;;;5.75;1.55;;;;;;;4.61;81.31;99655.44;4993647;28;20077;-46
2023/11/28 08:24:44;;;;;;;5.75;2.22;;;;;;;4.73;80.78;99664.16;4995776;28;20042;-45
2023/11/28 08:27:15;;;;;;;6.55;2.28;;;;;;;4.80;80.58;99663.38;5000646;28;20038;-46
2023/11/28 08:29:42;;;;;;;5.32;1.83;;;;;;;4.83;80.73;99668.56;4997360;28;20414;-46
2023/11/28 08:32:09;;;;;;;8.48;1.88;;;;;;;4.85;79.94;99672.03;4991382;28;20043;-43
2023/11/28 08:34:36;;;;;;;5.97;2.25;;;;;;;4.88;80.93;99678.91;4996397;28;20081;-43
2023/11/28 08:37:04;;;;;;;3.78;1.45;;;;;;;4.87;80.61;99672.91;4995248;28;20049;-45
2023/11/28 08:39:30;;;;;;;9.35;2.10;;;;;;;4.90;80.54;99672.13;4990596;28;20451;-47
2023/11/28 08:41:57;;;;;;;9.25;1.48;;;;;;;4.91;80.45;99675.53;4999585;28;20042;-49
2023/11/28 08:44:24;;;;;;;4.82;1.55;;;;;;;4.98;79.88;99674.78;4998047;28;20113;-46
2023/11/28 08:46:50;;;;;;;10.38;1.80;;;;;;;5.03;79.87;99678.25;4999864;28;20046;-49
2023/11/28 08:49:18;;;;;;;5.82;1.48;;;;;;;5.09;80.39;99678.34;5005270;28;20622;-44
2023/11/28 08:51:45;;;;;;;5.13;2.13;;;;;;;5.20;80.29;99677.66;5003451;28;20061;-49
2023/11/28 08:54:11;;;;;;;4.63;2.25;;;;;;;5.28;80.28;99681.16;5001077;28;20069;-45
2023/11/28 08:56:38;;;;;;;4.65;1.95;;;;;;;5.38;80.91;99688.13;5004777;28;20050;-46
2023/11/28 08:59:05;;;;;;;6.10;1.98;;;;;;;5.52;80.05;99685.75;5001118;28;20049;-50
2023/11/28 09:01:31;;;;;;;7.30;2.22;;;;;;;5.65;80.28;99693.59;4996013;28;20125;-49
2023/11/28 09:04:00;;;;;;;4.75;2.10;;;;;;;5.84;80.21;99686.94;4996409;28;20060;-44
2023/11/28 09:06:27;;;;;;;4.38;1.73;;;;;;;5.92;80.40;99687.06;5002822;28;20060;-46
2023/11/28 09:08:54;;;;;;;6.25;1.90;;;;;;;5.89;78.73;99684.44;5001920;28;20097;-42
2023/11/28 09:11:21;;;;;;;11.60;2.30;;;;;;;5.82;79.52;99688.66;4997762;28;20053;-53
2023/11/28 09:13:48;;;;;;;5.43;1.60;;;;;;;5.79;79.00;99691.19;5008950;28;20562;-47
2023/11/28 09:16:16;;;;;;;5.03;2.33;;;;;;;5.73;78.11;99686.84;4999450;28;20061;-45
2023/11/28 09:18:43;;;;;;;5.18;1.20;;;;;;;5.72;79.83;99691.97;4998827;28;20419;-47
2023/11/28 09:21:12;;;;;;;4.80;1.45;;;;;;;6.11;79.98;99695.84;5000571;28;20073;-46
2023/11/28 09:23:40;;;;;;;8.38;3.70;;;;;;;7.18;80.00;99695.78;5001675;28;20045;-51
2023/11/28 09:26:06;;;;;;;6.53;1.85;;;;;;;8.45;80.72;99689.25;5002562;28;20054;-47
2023/11/28 09:28:36;;;;;;;5.47;2.00;;;;;;;9.65;79.15;99690.75;5004749;28;20126;-45
2023/11/28 09:31:04;;;;;;;3.80;1.33;;;;;;;10.77;78.14;99684.81;5001204;28;20176;-47
2023/11/28 09:33:32;;;;;;;5.88;1.38;;;;;;;11.78;75.36;99689.72;4998420;28;20045;-47
2023/11/28 09:35:59;;;;;;;7.75;2.80;;;;;;;12.62;73.58;99692.84;5006539;28;20101;-46
2023/11/28 09:38:27;;;;;;;3.70;1.40;;;;;;;13.29;71.36;99687.31;4997407;28;20064;-50
2023/11/28 09:40:54;;;;;;;5.47;1.90;;;;;;;13.90;70.38;99693.00;5001621;28;20128;-47
2023/11/28 09:43:25;;;;;;;4.30;0.93;;;;;;;14.39;68.29;99693.66;4999371;28;20412;-49
2023/11/28 09:45:57;;;;;;;5.38;1.58;;;;;;;14.89;68.44;99690.66;4995501;28;20054;-48
2023/11/28 09:48:25;;;;;;;2.67;1.25;;;;;;;15.38;67.13;99692.84;5002298;28;20058;-53
2023/11/28 09:50:54;;;;;;;3.28;1.08;;;;;;;15.73;65.71;99689.22;4998384;28;20050;-50
2023/11/28 09:53:23;;;;;;;4.57;1.85;;;;;;;15.98;64.20;99684.16;5001491;28;20056;-49
2023/11/28 09:55:58;;;;;;;4.70;1.55;;;;;;;16.09;63.28;99691.66;5003603;28;20048;-49
2023/11/28 09:58:26;;;;;;;5.88;1.83;;;;;;;16.21;61.95;99689.56;4999568;28;20042;-47
2023/11/28 10:00:55;;;;;;;4.93;1.10;;;;;;;16.29;60.48;99683.19;5003471;28;20045;-47
2023/11/28 10:03:22;;;;;;;15.32;2.38;;;;;;;16.34;60.23;99690.03;4998661;28;20100;-46
2023/11/28 10:05:52;;;;;;;4.78;1.58;;;;;;;16.46;59.99;99689.63;5005440;28;20363;-47
2023/11/28 10:08:21;;;;;;;;;;;;;;;16.60;58.69;99689.16;5001377;28;20482;-43
2023/11/28 10:10:49;;;;;;;5.70;1.65;;;;;;;16.61;57.66;99690.84;5001208;28;19925;-47
2023/11/28 10:13:16;;;;;;;4.13;1.63;;;;;;;16.61;57.07;99693.47;4999527;28;20050;-54
2023/11/28 10:15:49;;;;;;;4.32;1.33;;;;;;;16.60;56.32;99699.59;5004126;28;20069;-58
2023/11/28 10:18:20;;;;;;;3.90;1.88;;;;;;;16.57;55.68;99697.09;4994401;28;20100;-50
2023/11/28 10:20:47;;;;;;;2.95;1.30;;;;;;;16.45;55.38;99700.97;4999521;28;20499;-49
2023/11/28 10:23:16;;;;;;;4.32;2.40;;;;;;;16.38;54.51;99708.16;5001964;28;20491;-49
2023/11/28 10:25:43;;;;;;;4.55;2.35;;;;;;;16.22;54.36;99706.94;4998262;28;20164;-49
2023/11/28 10:28:13;;;;;;;4.30;2.53;;;;;;;16.04;53.74;99703.97;5001035;28;20052;-49
2023/11/28 10:30:40;;;;;;;7.55;2.17;;;;;;;15.72;53.53;99705.78;5007478;28;20042;-48
2023/11/28 10:33:07;;;;;;;3.33;1.67;;;;;;;15.28;53.71;99705.28;4998475;28;20525;-46
2023/11/28 10:35:42;;;;;;;5.57;1.42;;;;;;;14.54;54.56;99700.22;5005946;28;20054;-46
2023/11/28 10:38:17;;;;;;;5.60;1.33;;;;;;;13.79;54.82;99694.13;5003396;28;20129;-47
2023/11/28 10:40:48;;;;;;;5.93;1.73;;;;;;;13.21;56.09;99697.84;5009019;28;20054;-47
2023/11/28 10:43:16;;;;;;;5.15;2.60;;;;;;;12.70;57.33;99697.03;5004238;28;20050;-47
2023/11/28 10:45:44;;;;;;;5.65;2.28;;;;;;;12.43;58.28;99688.81;5006479;28;20465;-46
2023/11/28 10:48:11;;;;;;;3.63;1.60;;;;;;;12.14;58.29;99687.53;5002245;28;20104;-47
2023/11/28 10:50:41;;;;;;;6.50;2.20;;;;;;;11.92;58.81;99698.19;5010319;28;20439;-51
2023/11/28 10:53:11;;;;;;;7.25;2.25;;;;;;;11.62;58.17;99705.50;5002419;28;20062;-48
2023/11/28 10:55:42;;;;;;;3.50;1.83;;;;;;;11.34;59.37;99692.03;5003821;28;20061;-43
2023/11/28 10:58:15;;;;;;;7.47;1.73;;;;;;;11.01;60.30;99688.03;4997267;28;20600;-45
2023/11/28 11:00:45;;;;;;;4.05;2.15;;;;;;;10.68;61.01;99700.47;4997757;28;20058;-44
2023/11/28 11:03:14;;;;;;;;;;;;;;;10.21;60.34;99698.22;4999649;28;20050;-47
2023/11/28 11:05:42;;;;;;;4.00;1.70;;;;;;;9.98;61.07;99694.03;5007198;28;20056;-47
2023/11/28 11:08:09;;;;;;;5.18;1.95;;;;;;;9.75;62.08;99682.09;5003075;28;20042;-46
2023/11/28 11:10:38;;;;;;;6.25;1.27;;;;;;;9.62;61.96;99693.34;5000411;28;20054;-45
2023/11/28 11:21:07;;;;;;;4.55;1.73;;;;;;;9.25;63.74;99671.94;5065411;28;20397;-49
2023/11/28 11:23:36;;;;;;;2.20;1.20;;;;;;;9.25;64.41;99661.63;5014049;28;20065;-49
2023/11/28 11:26:02;;;;;;;7.15;1.40;;;;;;;9.32;64.19;99666.78;5020870;28;20050;-49
2023/11/28 11:28:29;;;;;;;3.45;1.75;;;;;;;9.27;64.26;99659.03;5028567;28;20045;-45
2023/11/28 11:30:57;;;;;;;4.63;1.48;;;;;;;9.12;64.40;99659.94;5022708;28;20057;-43
2023/11/28 11:33:24;;;;;;;3.78;1.70;;;;;;;8.93;63.95;99654.81;5018622;28;20070;-52
2023/11/28 11:36:10;;;;;;;3.13;1.23;;;;;;;8.71;64.12;99644.53;5019835;28;20061;-46
2023/11/28 11:38:37;;;;;;;2.63;1.25;;;;;;;8.62;64.85;99649.72;5016994;28;20057;-43
2023/11/28 11:41:05;;;;;;;6.82;1.83;;;;;;;8.61;64.68;99653.13;5018317;28;20045;-45
2023/11/28 11:43:37;;;;;;;7.32;1.75;;;;;;;8.52;64.37;99643.69;5016668;28;20049;-44
2023/11/28 11:46:13;;;;;;;2.20;1.23;;;;;;;8.42;64.83;99641.94;5015450;28;20057;-46
2023/11/28 11:48:41;;;;;;;;;;;;;;;8.23;64.77;99642.81;5018184;28;20042;-44
2023/11/28 11:51:10;;;;;;;3.83;1.40;;;;;;;8.17;65.36;99647.97;5018428;28;20367;-46